Main page
METAR-TAF:

METAR-TAF

Airports :

Herat International Airport

Herat, Afghanistan

latitude: 34-13N, longitude: 062-13E, elevation: 964 m

Current weather observation

The report was made 59 minutes ago, at 06:55 UTC
Wind 22 kt from the Northeast with gusts up to 36 kt
Temperature 34°C
Humidity 20%
Pressure 1011 hPa
Visibility 10 km or more
no clouds below 1500 m and no cumulonimbus

METAR: OAHR 110655Z 05022G36KT CAVOK 34/08 Q1011 RMK A2986 BLU MEDCOP WX STATUS/ GREEN

Time: 12:24 (07:54 UTC)

Forecast

The report was made 14 hours and 54 minutes ago, at 17:00 UTC
Forecast valid from 10 at 18 UTC to 11 at 18 UTC
Wind 15 kt from the North/Northeast with gusts up to 30 kt
Visibility 10 km or more
no clouds below 1500 m and no cumulonimbus
Becoming
from 10 at 21 UTC to 10 at 23 UTC
Wind 10 kt from the Northeast
Becoming
from 11 at 04 UTC to 11 at 06 UTC
Wind 15 kt from the North/Northeast with gusts up to 32 kt

TAF: OAHR 101700Z 1018/1118 02015G30KT CAVOK BECMG 1021/1023 05010KT BECMG 1104/1106 03015G32KT

Weather observations and forecasts of more than 4000 airports (METAR and TAF reports).

The available stations are represented by yellow and red dots on the map.

Hover mouse over dot to see the name of the station.

Then click to see weather observations and forecasts.

To change the map : click on the green buttons with a black cross to zoom in, on the green button with a dash to zoom out, or on the green arrows for adjacent maps.


METAR-TAF: